sensor_id;sensor_type;location;lat;lon;timestamp;temperature;humidity
29255;DHT22;16277;48.890;2.306;2022-09-09T00:10:28;20.30;99.90
29255;DHT22;16277;48.890;2.306;2022-09-09T00:25:37;20.40;99.90
29255;DHT22;16277;48.890;2.306;2022-09-09T00:40:49;20.30;99.90
29255;DHT22;16277;48.890;2.306;2022-09-09T00:55:59;20.30;99.90
29255;DHT22;16277;48.890;2.306;2022-09-09T01:11:10;20.20;99.90
29255;DHT22;16277;48.890;2.306;2022-09-09T01:26:25;20.00;99.90
29255;DHT22;16277;48.890;2.306;2022-09-09T01:41:34;20.00;99.90
29255;DHT22;16277;48.890;2.306;2022-09-09T01:56:54;20.20;99.90
29255;DHT22;16277;48.890;2.306;2022-09-09T02:12:07;19.80;99.90
29255;DHT22;16277;48.890;2.306;2022-09-09T02:27:20;19.90;99.90
29255;DHT22;16277;48.890;2.306;2022-09-09T02:42:25;19.80;99.90
29255;DHT22;16277;48.890;2.306;2022-09-09T02:57:31;19.70;99.90
29255;DHT22;16277;48.890;2.306;2022-09-09T03:12:37;19.80;99.90
29255;DHT22;16277;48.890;2.306;2022-09-09T03:27:42;19.70;99.90
29255;DHT22;16277;48.890;2.306;2022-09-09T03:42:48;19.50;99.90
29255;DHT22;16277;48.890;2.306;2022-09-09T03:57:53;19.70;99.90
29255;DHT22;16277;48.890;2.306;2022-09-09T04:12:58;19.40;99.90
29255;DHT22;16277;48.890;2.306;2022-09-09T04:28:03;19.40;99.90
29255;DHT22;16277;48.890;2.306;2022-09-09T04:43:08;19.50;99.90
29255;DHT22;16277;48.890;2.306;2022-09-09T04:58:17;19.80;99.90
29255;DHT22;16277;48.890;2.306;2022-09-09T05:13:25;19.50;99.90
29255;DHT22;16277;48.890;2.306;2022-09-09T05:28:30;19.60;99.90
29255;DHT22;16277;48.890;2.306;2022-09-09T05:43:35;19.40;99.90
29255;DHT22;16277;48.890;2.306;2022-09-09T05:58:40;19.60;99.90
29255;DHT22;16277;48.890;2.306;2022-09-09T06:13:48;19.70;99.90
29255;DHT22;16277;48.890;2.306;2022-09-09T06:28:55;19.70;99.90
29255;DHT22;16277;48.890;2.306;2022-09-09T06:44:01;19.60;99.90
29255;DHT22;16277;48.890;2.306;2022-09-09T06:59:17;19.70;99.90
29255;DHT22;16277;48.890;2.306;2022-09-09T07:14:23;19.70;99.90
29255;DHT22;16277;48.890;2.306;2022-09-09T07:29:31;19.60;99.90
29255;DHT22;16277;48.890;2.306;2022-09-09T07:44:36;19.70;99.90
29255;DHT22;16277;48.890;2.306;2022-09-09T07:59:46;19.80;99.90
29255;DHT22;16277;48.890;2.306;2022-09-09T08:14:51;19.70;99.90
29255;DHT22;16277;48.890;2.306;2022-09-09T08:30:00;20.10;99.90
29255;DHT22;16277;48.890;2.306;2022-09-09T08:45:22;20.10;99.90
29255;DHT22;16277;48.890;2.306;2022-09-09T09:00:35;20.30;99.90
29255;DHT22;16277;48.890;2.306;2022-09-09T09:15:48;19.90;99.90
29255;DHT22;16277;48.890;2.306;2022-09-09T09:30:56;20.40;99.90
29255;DHT22;16277;48.890;2.306;2022-09-09T09:46:04;20.80;99.90
29255;DHT22;16277;48.890;2.306;2022-09-09T10:01:23;20.60;99.90
29255;DHT22;16277;48.890;2.306;2022-09-09T10:16:41;20.80;99.90
29255;DHT22;16277;48.890;2.306;2022-09-09T10:31:57;20.90;99.90
29255;DHT22;16277;48.890;2.306;2022-09-09T10:47:18;21.20;99.90
29255;DHT22;16277;48.890;2.306;2022-09-09T11:02:31;21.60;99.90
29255;DHT22;16277;48.890;2.306;2022-09-09T11:17:40;21.30;99.90
29255;DHT22;16277;48.890;2.306;2022-09-09T11:48:34;21.20;99.90
29255;DHT22;16277;48.890;2.306;2022-09-09T12:03:42;20.80;99.90
29255;DHT22;16277;48.890;2.306;2022-09-09T12:18:47;21.40;99.90
29255;DHT22;16277;48.890;2.306;2022-09-09T12:33:52;20.90;99.90
29255;DHT22;16277;48.890;2.306;2022-09-09T12:48:56;20.40;99.90
29255;DHT22;16277;48.890;2.306;2022-09-09T13:04:01;20.70;99.90
29255;DHT22;16277;48.890;2.306;2022-09-09T13:19:09;20.80;99.90
29255;DHT22;16277;48.890;2.306;2022-09-09T13:34:27;20.60;99.90
29255;DHT22;16277;48.890;2.306;2022-09-09T13:49:31;20.70;99.90
29255;DHT22;16277;48.890;2.306;2022-09-09T14:04:36;20.70;99.90
29255;DHT22;16277;48.890;2.306;2022-09-09T14:19:40;21.10;99.90
29255;DHT22;16277;48.890;2.306;2022-09-09T14:34:45;22.30;99.90
29255;DHT22;16277;48.890;2.306;2022-09-09T14:49:52;23.40;99.90
29255;DHT22;16277;48.890;2.306;2022-09-09T15:04:57;24.20;99.90
29255;DHT22;16277;48.890;2.306;2022-09-09T15:20:02;23.50;99.90
29255;DHT22;16277;48.890;2.306;2022-09-09T15:35:07;28.60;99.90
29255;DHT22;16277;48.890;2.306;2022-09-09T15:50:11;24.60;99.90
29255;DHT22;16277;48.890;2.306;2022-09-09T16:05:16;22.50;99.90
29255;DHT22;16277;48.890;2.306;2022-09-09T16:20:20;22.70;99.90
29255;DHT22;16277;48.890;2.306;2022-09-09T16:35:25;21.70;99.90
29255;DHT22;16277;48.890;2.306;2022-09-09T16:50:30;21.70;99.90
29255;DHT22;16277;48.890;2.306;2022-09-09T17:05:40;22.90;99.90
29255;DHT22;16277;48.890;2.306;2022-09-09T17:20:45;23.40;99.90
29255;DHT22;16277;48.890;2.306;2022-09-09T17:35:50;22.20;99.90
29255;DHT22;16277;48.890;2.306;2022-09-09T17:50:58;21.50;99.90
29255;DHT22;16277;48.890;2.306;2022-09-09T18:06:08;20.70;99.90
29255;DHT22;16277;48.890;2.306;2022-09-09T18:21:13;20.40;99.90
29255;DHT22;16277;48.890;2.306;2022-09-09T18:36:18;20.60;99.90
29255;DHT22;16277;48.890;2.306;2022-09-09T18:51:25;20.50;99.90
29255;DHT22;16277;48.890;2.306;2022-09-09T19:06:31;20.40;99.90
29255;DHT22;16277;48.890;2.306;2022-09-09T19:21:37;20.30;99.90
29255;DHT22;16277;48.890;2.306;2022-09-09T19:36:42;20.00;99.90
29255;DHT22;16277;48.890;2.306;2022-09-09T19:51:46;20.20;99.90
29255;DHT22;16277;48.890;2.306;2022-09-09T20:06:50;20.10;99.90
29255;DHT22;16277;48.890;2.306;2022-09-09T20:21:55;20.00;99.90
29255;DHT22;16277;48.890;2.306;2022-09-09T20:37:00;19.70;99.90
29255;DHT22;16277;48.890;2.306;2022-09-09T20:52:06;19.70;99.90
